sensor_id;sensor_type;location;lat;lon;timestamp;temperature;humidity
57444;DHT22;43289;52.962;6.196;2023-02-28T00:00:00;3.80;99.90
57444;DHT22;43289;52.962;6.196;2023-02-28T00:02:26;3.80;99.90
57444;DHT22;43289;52.962;6.196;2023-02-28T00:04:51;3.80;99.90
57444;DHT22;43289;52.962;6.196;2023-02-28T00:07:27;3.70;99.90
57444;DHT22;43289;52.962;6.196;2023-02-28T00:09:53;3.70;99.90
57444;DHT22;43289;52.962;6.196;2023-02-28T00:12:18;3.70;99.90
57444;DHT22;43289;52.962;6.196;2023-02-28T00:14:44;3.70;99.90
57444;DHT22;43289;52.962;6.196;2023-02-28T00:17:10;3.70;99.90
57444;DHT22;43289;52.962;6.196;2023-02-28T00:19:35;3.70;99.90
57444;DHT22;43289;52.962;6.196;2023-02-28T00:22:01;3.70;99.90
57444;DHT22;43289;52.962;6.196;2023-02-28T00:24:26;3.70;99.90
57444;DHT22;43289;52.962;6.196;2023-02-28T00:26:52;3.60;99.90
57444;DHT22;43289;52.962;6.196;2023-02-28T00:29:17;3.60;99.90
57444;DHT22;43289;52.962;6.196;2023-02-28T00:31:43;3.60;99.90
57444;DHT22;43289;52.962;6.196;2023-02-28T00:34:08;3.60;99.90
57444;DHT22;43289;52.962;6.196;2023-02-28T00:36:34;3.60;99.90
57444;DHT22;43289;52.962;6.196;2023-02-28T00:39:00;3.50;99.90
57444;DHT22;43289;52.962;6.196;2023-02-28T00:41:25;3.50;99.90
57444;DHT22;43289;52.962;6.196;2023-02-28T00:43:51;3.50;99.90
57444;DHT22;43289;52.962;6.196;2023-02-28T00:46:17;3.40;99.90
57444;DHT22;43289;52.962;6.196;2023-02-28T00:48:42;3.40;99.90
57444;DHT22;43289;52.962;6.196;2023-02-28T00:51:08;3.40;99.90
57444;DHT22;43289;52.962;6.196;2023-02-28T00:53:34;3.40;99.90
57444;DHT22;43289;52.962;6.196;2023-02-28T00:55:59;3.40;99.90
57444;DHT22;43289;52.962;6.196;2023-02-28T00:58:26;3.40;99.90
57444;DHT22;43289;52.962;6.196;2023-02-28T01:00:52;3.40;99.90
57444;DHT22;43289;52.962;6.196;2023-02-28T01:03:20;3.40;99.90
57444;DHT22;43289;52.962;6.196;2023-02-28T01:05:46;3.40;99.90
57444;DHT22;43289;52.962;6.196;2023-02-28T01:08:13;3.40;99.90
57444;DHT22;43289;52.962;6.196;2023-02-28T01:10:39;3.50;99.90
57444;DHT22;43289;52.962;6.196;2023-02-28T01:13:05;3.50;99.90
57444;DHT22;43289;52.962;6.196;2023-02-28T01:15:30;3.50;99.90
57444;DHT22;43289;52.962;6.196;2023-02-28T01:17:58;3.50;99.90
57444;DHT22;43289;52.962;6.196;2023-02-28T01:20:23;3.50;99.90
57444;DHT22;43289;52.962;6.196;2023-02-28T01:22:49;3.40;99.90
57444;DHT22;43289;52.962;6.196;2023-02-28T01:25:15;3.50;99.90
57444;DHT22;43289;52.962;6.196;2023-02-28T01:27:40;3.40;99.90
57444;DHT22;43289;52.962;6.196;2023-02-28T01:30:07;3.40;99.90
57444;DHT22;43289;52.962;6.196;2023-02-28T01:32:33;3.50;99.90
57444;DHT22;43289;52.962;6.196;2023-02-28T01:34:58;3.40;99.90
57444;DHT22;43289;52.962;6.196;2023-02-28T01:37:24;3.50;99.90
57444;DHT22;43289;52.962;6.196;2023-02-28T01:39:50;3.50;99.90
57444;DHT22;43289;52.962;6.196;2023-02-28T01:42:15;3.50;99.90
57444;DHT22;43289;52.962;6.196;2023-02-28T01:47:35;3.60;99.90
57444;DHT22;43289;52.962;6.196;2023-02-28T01:50:05;3.60;99.90
57444;DHT22;43289;52.962;6.196;2023-02-28T01:52:33;3.50;99.90
57444;DHT22;43289;52.962;6.196;2023-02-28T01:55:19;3.60;99.90
57444;DHT22;43289;52.962;6.196;2023-02-28T01:57:48;3.60;99.90
57444;DHT22;43289;52.962;6.196;2023-02-28T02:00:18;3.60;99.90
57444;DHT22;43289;52.962;6.196;2023-02-28T02:02:47;3.60;99.90
57444;DHT22;43289;52.962;6.196;2023-02-28T02:05:18;3.60;99.90
57444;DHT22;43289;52.962;6.196;2023-02-28T02:07:46;3.60;99.90
57444;DHT22;43289;52.962;6.196;2023-02-28T02:10:16;3.60;99.90
57444;DHT22;43289;52.962;6.196;2023-02-28T02:13:14;3.60;99.90
57444;DHT22;43289;52.962;6.196;2023-02-28T02:18:48;3.50;99.90
57444;DHT22;43289;52.962;6.196;2023-02-28T02:24:13;3.40;99.90
57444;DHT22;43289;52.962;6.196;2023-02-28T02:35:43;3.50;99.90
57444;DHT22;43289;52.962;6.196;2023-02-28T02:38:31;3.50;99.90
57444;DHT22;43289;52.962;6.196;2023-02-28T02:43:36;3.50;99.90
57444;DHT22;43289;52.962;6.196;2023-02-28T02:46:16;3.60;99.90
57444;DHT22;43289;52.962;6.196;2023-02-28T02:48:43;3.50;99.90
57444;DHT22;43289;52.962;6.196;2023-02-28T02:51:14;3.50;99.90
57444;DHT22;43289;52.962;6.196;2023-02-28T02:53:54;3.60;99.90
57444;DHT22;43289;52.962;6.196;2023-02-28T02:56:25;3.60;99.90
57444;DHT22;43289;52.962;6.196;2023-02-28T02:58:54;3.60;99.90
57444;DHT22;43289;52.962;6.196;2023-02-28T03:01:23;3.60;99.90
57444;DHT22;43289;52.962;6.196;2023-02-28T03:03:58;3.60;99.90
57444;DHT22;43289;52.962;6.196;2023-02-28T03:06:25;3.60;99.90
57444;DHT22;43289;52.962;6.196;2023-02-28T03:08:51;3.60;99.90
57444;DHT22;43289;52.962;6.196;2023-02-28T03:11:17;3.60;99.90
57444;DHT22;43289;52.962;6.196;2023-02-28T03:27:11;3.60;99.90
57444;DHT22;43289;52.962;6.196;2023-02-28T03:29:50;3.60;99.90
57444;DHT22;43289;52.962;6.196;2023-02-28T03:32:32;3.60;99.90
57444;DHT22;43289;52.962;6.196;2023-02-28T03:35:05;3.60;99.90
57444;DHT22;43289;52.962;6.196;2023-02-28T03:37:35;3.60;99.90
57444;DHT22;43289;52.962;6.196;2023-02-28T03:40:13;3.60;99.90
57444;DHT22;43289;52.962;6.196;2023-02-28T03:42:42;3.60;99.90
57444;DHT22;43289;52.962;6.196;2023-02-28T03:45:24;3.60;99.90
57444;DHT22;43289;52.962;6.196;2023-02-28T03:47:57;3.70;99.90
57444;DHT22;43289;52.962;6.196;2023-02-28T03:50:34;3.70;99.90
57444;DHT22;43289;52.962;6.196;2023-02-28T03:53:04;3.70;99.90
57444;DHT22;43289;52.962;6.196;2023-02-28T03:55:42;3.70;99.90
57444;DHT22;43289;52.962;6.196;2023-02-28T03:58:30;3.70;99.90
57444;DHT22;43289;52.962;6.196;2023-02-28T04:03:52;3.60;99.90
57444;DHT22;43289;52.962;6.196;2023-02-28T04:06:20;3.60;99.90
57444;DHT22;43289;52.962;6.196;2023-02-28T04:08:46;3.50;99.90
57444;DHT22;43289;52.962;6.196;2023-02-28T04:13:40;3.50;99.90
57444;DHT22;43289;52.962;6.196;2023-02-28T04:16:14;3.40;99.90
57444;DHT22;43289;52.962;6.196;2023-02-28T04:18:40;3.40;99.90
57444;DHT22;43289;52.962;6.196;2023-02-28T04:21:06;3.40;99.90
57444;DHT22;43289;52.962;6.196;2023-02-28T04:23:32;3.40;99.90
57444;DHT22;43289;52.962;6.196;2023-02-28T04:25:58;3.40;99.90
57444;DHT22;43289;52.962;6.196;2023-02-28T04:28:24;3.40;99.90
57444;DHT22;43289;52.962;6.196;2023-02-28T04:30:57;3.40;99.90
57444;DHT22;43289;52.962;6.196;2023-02-28T04:33:23;3.40;99.90
57444;DHT22;43289;52.962;6.196;2023-02-28T04:35:58;3.40;99.90
57444;DHT22;43289;52.962;6.196;2023-02-28T04:38:23;3.40;99.90
57444;DHT22;43289;52.962;6.196;2023-02-28T04:40:49;3.30;99.90
57444;DHT22;43289;52.962;6.196;2023-02-28T04:43:14;3.30;99.90
57444;DHT22;43289;52.962;6.196;2023-02-28T04:45:40;3.30;99.90
57444;DHT22;43289;52.962;6.196;2023-02-28T04:48:06;3.30;99.90
57444;DHT22;43289;52.962;6.196;2023-02-28T04:50:31;3.30;99.90
57444;DHT22;43289;52.962;6.196;2023-02-28T04:52:57;3.30;99.90
57444;DHT22;43289;52.962;6.196;2023-02-28T04:55:22;3.30;99.90
57444;DHT22;43289;52.962;6.196;2023-02-28T04:57:48;3.30;99.90
57444;DHT22;43289;52.962;6.196;2023-02-28T05:00:13;3.30;99.90
57444;DHT22;43289;52.962;6.196;2023-02-28T05:02:42;3.30;99.90
57444;DHT22;43289;52.962;6.196;2023-02-28T05:05:08;3.20;99.90
57444;DHT22;43289;52.962;6.196;2023-02-28T05:07:33;3.20;99.90
57444;DHT22;43289;52.962;6.196;2023-02-28T05:09:59;3.20;99.90
57444;DHT22;43289;52.962;6.196;2023-02-28T05:12:25;3.20;99.90
57444;DHT22;43289;52.962;6.196;2023-02-28T05:14:50;3.10;99.90
57444;DHT22;43289;52.962;6.196;2023-02-28T05:17:16;3.10;99.90
57444;DHT22;43289;52.962;6.196;2023-02-28T05:19:42;3.10;99.90
57444;DHT22;43289;52.962;6.196;2023-02-28T05:22:13;3.00;99.90
57444;DHT22;43289;52.962;6.196;2023-02-28T05:24:40;3.00;99.90
57444;DHT22;43289;52.962;6.196;2023-02-28T05:27:08;3.00;99.90
57444;DHT22;43289;52.962;6.196;2023-02-28T05:29:33;3.00;99.90
57444;DHT22;43289;52.962;6.196;2023-02-28T05:31:59;3.00;99.90
57444;DHT22;43289;52.962;6.196;2023-02-28T05:34:25;2.90;99.90
57444;DHT22;43289;52.962;6.196;2023-02-28T05:36:50;2.90;99.90
57444;DHT22;43289;52.962;6.196;2023-02-28T05:39:16;3.00;99.90
57444;DHT22;43289;52.962;6.196;2023-02-28T05:41:42;2.90;99.90
57444;DHT22;43289;52.962;6.196;2023-02-28T05:44:08;3.00;99.90
57444;DHT22;43289;52.962;6.196;2023-02-28T05:46:33;2.90;99.90
57444;DHT22;43289;52.962;6.196;2023-02-28T05:48:59;2.90;99.90
57444;DHT22;43289;52.962;6.196;2023-02-28T05:51:26;2.90;99.90
57444;DHT22;43289;52.962;6.196;2023-02-28T05:53:51;2.90;99.90
57444;DHT22;43289;52.962;6.196;2023-02-28T05:56:17;2.80;99.90
57444;DHT22;43289;52.962;6.196;2023-02-28T05:58:43;2.80;99.90
57444;DHT22;43289;52.962;6.196;2023-02-28T06:01:35;2.80;99.90
57444;DHT22;43289;52.962;6.196;2023-02-28T06:04:02;2.80;99.90
57444;DHT22;43289;52.962;6.196;2023-02-28T06:06:29;2.70;99.90
57444;DHT22;43289;52.962;6.196;2023-02-28T06:08:55;2.70;99.90
57444;DHT22;43289;52.962;6.196;2023-02-28T06:11:21;2.70;99.90
57444;DHT22;43289;52.962;6.196;2023-02-28T06:13:53;2.70;99.90
57444;DHT22;43289;52.962;6.196;2023-02-28T06:16:19;2.70;99.90
57444;DHT22;43289;52.962;6.196;2023-02-28T06:18:45;2.60;99.90
57444;DHT22;43289;52.962;6.196;2023-02-28T06:21:14;2.60;99.90
57444;DHT22;43289;52.962;6.196;2023-02-28T06:23:50;2.60;99.90
57444;DHT22;43289;52.962;6.196;2023-02-28T06:26:15;2.60;99.90
57444;DHT22;43289;52.962;6.196;2023-02-28T06:28:41;2.60;99.90
57444;DHT22;43289;52.962;6.196;2023-02-28T06:31:11;2.60;99.90
57444;DHT22;43289;52.962;6.196;2023-02-28T06:33:37;2.60;99.90
57444;DHT22;43289;52.962;6.196;2023-02-28T06:36:04;2.50;99.90
57444;DHT22;43289;52.962;6.196;2023-02-28T06:38:30;2.60;99.90
57444;DHT22;43289;52.962;6.196;2023-02-28T06:40:57;2.60;99.90
57444;DHT22;43289;52.962;6.196;2023-02-28T06:43:24;2.60;99.90
57444;DHT22;43289;52.962;6.196;2023-02-28T06:45:50;2.60;99.90
57444;DHT22;43289;52.962;6.196;2023-02-28T06:48:16;2.60;99.90
57444;DHT22;43289;52.962;6.196;2023-02-28T06:50:42;2.60;99.90
57444;DHT22;43289;52.962;6.196;2023-02-28T06:53:07;2.50;99.90
57444;DHT22;43289;52.962;6.196;2023-02-28T06:55:33;2.50;99.90
57444;DHT22;43289;52.962;6.196;2023-02-28T06:57:58;2.50;99.90
57444;DHT22;43289;52.962;6.196;2023-02-28T07:00:24;2.50;99.90
57444;DHT22;43289;52.962;6.196;2023-02-28T07:02:50;2.50;99.90
57444;DHT22;43289;52.962;6.196;2023-02-28T07:05:16;2.50;99.90
57444;DHT22;43289;52.962;6.196;2023-02-28T07:07:41;2.50;99.90
57444;DHT22;43289;52.962;6.196;2023-02-28T07:10:10;2.50;99.90
57444;DHT22;43289;52.962;6.196;2023-02-28T07:12:37;2.50;99.90
57444;DHT22;43289;52.962;6.196;2023-02-28T07:15:03;2.60;99.90
57444;DHT22;43289;52.962;6.196;2023-02-28T07:17:29;2.60;99.90
57444;DHT22;43289;52.962;6.196;2023-02-28T07:19:54;2.60;99.90
57444;DHT22;43289;52.962;6.196;2023-02-28T07:22:20;2.60;99.90
57444;DHT22;43289;52.962;6.196;2023-02-28T07:24:45;2.60;99.90
57444;DHT22;43289;52.962;6.196;2023-02-28T07:27:11;2.60;99.90
57444;DHT22;43289;52.962;6.196;2023-02-28T07:29:37;2.70;99.90
57444;DHT22;43289;52.962;6.196;2023-02-28T07:32:03;2.70;99.90
57444;DHT22;43289;52.962;6.196;2023-02-28T07:34:29;2.70;99.90
57444;DHT22;43289;52.962;6.196;2023-02-28T07:36:55;2.60;99.90
57444;DHT22;43289;52.962;6.196;2023-02-28T07:39:21;2.60;99.90
57444;DHT22;43289;52.962;6.196;2023-02-28T07:41:47;2.70;99.90
57444;DHT22;43289;52.962;6.196;2023-02-28T07:44:12;2.70;99.90
57444;DHT22;43289;52.962;6.196;2023-02-28T07:46:38;2.70;99.90
57444;DHT22;43289;52.962;6.196;2023-02-28T07:49:05;2.70;99.90
57444;DHT22;43289;52.962;6.196;2023-02-28T07:51:32;2.70;99.90
57444;DHT22;43289;52.962;6.196;2023-02-28T07:53:57;2.70;99.90
57444;DHT22;43289;52.962;6.196;2023-02-28T07:56:23;2.80;99.90
57444;DHT22;43289;52.962;6.196;2023-02-28T07:58:49;2.80;99.90
57444;DHT22;43289;52.962;6.196;2023-02-28T08:01:14;2.80;99.90
57444;DHT22;43289;52.962;6.196;2023-02-28T08:03:40;2.80;99.90
57444;DHT22;43289;52.962;6.196;2023-02-28T08:06:08;2.90;99.90
57444;DHT22;43289;52.962;6.196;2023-02-28T08:08:40;2.90;99.90
57444;DHT22;43289;52.962;6.196;2023-02-28T08:11:06;2.90;99.90
57444;DHT22;43289;52.962;6.196;2023-02-28T08:13:31;2.90;99.90
57444;DHT22;43289;52.962;6.196;2023-02-28T08:15:57;3.00;99.90
57444;DHT22;43289;52.962;6.196;2023-02-28T08:18:23;3.00;99.90
57444;DHT22;43289;52.962;6.196;2023-02-28T08:20:48;3.10;99.90
57444;DHT22;43289;52.962;6.196;2023-02-28T08:23:14;3.10;99.90
57444;DHT22;43289;52.962;6.196;2023-02-28T08:25:40;3.20;99.90
57444;DHT22;43289;52.962;6.196;2023-02-28T08:28:05;3.20;99.90
57444;DHT22;43289;52.962;6.196;2023-02-28T08:30:31;3.20;99.90
57444;DHT22;43289;52.962;6.196;2023-02-28T08:32:57;3.20;99.90
57444;DHT22;43289;52.962;6.196;2023-02-28T08:35:23;3.30;99.90
57444;DHT22;43289;52.962;6.196;2023-02-28T08:37:49;3.30;99.90
57444;DHT22;43289;52.962;6.196;2023-02-28T08:40:15;3.30;99.90
57444;DHT22;43289;52.962;6.196;2023-02-28T08:42:44;3.30;99.90
57444;DHT22;43289;52.962;6.196;2023-02-28T08:45:11;3.30;99.90
57444;DHT22;43289;52.962;6.196;2023-02-28T08:47:36;3.40;99.90
57444;DHT22;43289;52.962;6.196;2023-02-28T08:50:03;3.50;99.90
57444;DHT22;43289;52.962;6.196;2023-02-28T08:52:28;3.50;99.90
57444;DHT22;43289;52.962;6.196;2023-02-28T08:54:54;3.60;99.90
57444;DHT22;43289;52.962;6.196;2023-02-28T08:57:20;3.60;99.90
57444;DHT22;43289;52.962;6.196;2023-02-28T08:59:46;3.70;99.90
57444;DHT22;43289;52.962;6.196;2023-02-28T09:02:14;3.70;99.90
57444;DHT22;43289;52.962;6.196;2023-02-28T09:04:40;3.80;99.90
57444;DHT22;43289;52.962;6.196;2023-02-28T09:07:06;3.80;99.90
57444;DHT22;43289;52.962;6.196;2023-02-28T09:09:32;3.90;99.90
57444;DHT22;43289;52.962;6.196;2023-02-28T09:11:57;4.00;99.90
57444;DHT22;43289;52.962;6.196;2023-02-28T09:14:23;4.10;99.90
57444;DHT22;43289;52.962;6.196;2023-02-28T09:16:49;4.20;99.90
57444;DHT22;43289;52.962;6.196;2023-02-28T09:19:14;4.30;99.90
57444;DHT22;43289;52.962;6.196;2023-02-28T09:21:40;4.40;99.90
57444;DHT22;43289;52.962;6.196;2023-02-28T09:24:06;4.40;99.90
57444;DHT22;43289;52.962;6.196;2023-02-28T09:26:31;4.40;99.90
57444;DHT22;43289;52.962;6.196;2023-02-28T09:28:57;4.40;99.90
57444;DHT22;43289;52.962;6.196;2023-02-28T09:31:26;4.40;99.90
57444;DHT22;43289;52.962;6.196;2023-02-28T09:33:55;4.50;99.90
57444;DHT22;43289;52.962;6.196;2023-02-28T09:36:21;4.50;99.90
57444;DHT22;43289;52.962;6.196;2023-02-28T09:38:48;4.70;99.90
57444;DHT22;43289;52.962;6.196;2023-02-28T09:41:25;5.10;99.90
57444;DHT22;43289;52.962;6.196;2023-02-28T09:43:56;5.60;99.90
57444;DHT22;43289;52.962;6.196;2023-02-28T09:46:44;5.70;99.90
57444;DHT22;43289;52.962;6.196;2023-02-28T09:49:18;5.90;99.90
57444;DHT22;43289;52.962;6.196;2023-02-28T09:52:01;6.10;99.90
57444;DHT22;43289;52.962;6.196;2023-02-28T09:54:30;6.30;99.90
57444;DHT22;43289;52.962;6.196;2023-02-28T09:57:00;6.30;99.90
57444;DHT22;43289;52.962;6.196;2023-02-28T10:00:07;6.50;99.90
57444;DHT22;43289;52.962;6.196;2023-02-28T10:05:43;6.90;99.90
57444;DHT22;43289;52.962;6.196;2023-02-28T10:08:16;7.20;99.90
57444;DHT22;43289;52.962;6.196;2023-02-28T10:10:52;7.30;99.90
57444;DHT22;43289;52.962;6.196;2023-02-28T10:13:36;7.50;99.90
57444;DHT22;43289;52.962;6.196;2023-02-28T10:16:12;7.80;99.90
57444;DHT22;43289;52.962;6.196;2023-02-28T10:18:48;8.00;99.90
57444;DHT22;43289;52.962;6.196;2023-02-28T10:21:21;8.10;99.90
57444;DHT22;43289;52.962;6.196;2023-02-28T10:23:48;8.20;99.90
57444;DHT22;43289;52.962;6.196;2023-02-28T10:26:17;8.30;99.90
57444;DHT22;43289;52.962;6.196;2023-02-28T10:28:43;8.40;99.90
57444;DHT22;43289;52.962;6.196;2023-02-28T10:31:15;8.50;99.90
57444;DHT22;43289;52.962;6.196;2023-02-28T10:33:42;8.60;99.90
57444;DHT22;43289;52.962;6.196;2023-02-28T10:36:14;8.80;99.90
57444;DHT22;43289;52.962;6.196;2023-02-28T10:38:39;8.80;99.90
57444;DHT22;43289;52.962;6.196;2023-02-28T10:41:08;8.90;99.90
57444;DHT22;43289;52.962;6.196;2023-02-28T10:43:35;9.00;99.90
57444;DHT22;43289;52.962;6.196;2023-02-28T10:48:47;9.20;99.90
57444;DHT22;43289;52.962;6.196;2023-02-28T10:51:18;9.10;99.90
57444;DHT22;43289;52.962;6.196;2023-02-28T10:53:50;9.00;99.90
57444;DHT22;43289;52.962;6.196;2023-02-28T10:56:19;9.00;99.90
57444;DHT22;43289;52.962;6.196;2023-02-28T10:59:28;9.20;99.90
57444;DHT22;43289;52.962;6.196;2023-02-28T11:01:54;9.20;99.90
57444;DHT22;43289;52.962;6.196;2023-02-28T11:07:04;9.10;99.90
57444;DHT22;43289;52.962;6.196;2023-02-28T11:09:38;9.30;99.90
57444;DHT22;43289;52.962;6.196;2023-02-28T11:12:07;9.50;99.90
57444;DHT22;43289;52.962;6.196;2023-02-28T11:14:47;9.60;99.90
57444;DHT22;43289;52.962;6.196;2023-02-28T11:17:23;9.70;99.90
57444;DHT22;43289;52.962;6.196;2023-02-28T11:19:55;9.80;99.90
57444;DHT22;43289;52.962;6.196;2023-02-28T11:22:27;10.00;99.90
57444;DHT22;43289;52.962;6.196;2023-02-28T11:25:00;9.90;99.90
57444;DHT22;43289;52.962;6.196;2023-02-28T11:29:56;10.10;99.90
57444;DHT22;43289;52.962;6.196;2023-02-28T11:32:23;10.10;99.90
57444;DHT22;43289;52.962;6.196;2023-02-28T11:37:38;10.00;99.90
57444;DHT22;43289;52.962;6.196;2023-02-28T11:40:41;10.10;99.90
57444;DHT22;43289;52.962;6.196;2023-02-28T11:48:44;9.50;99.90
57444;DHT22;43289;52.962;6.196;2023-02-28T11:51:33;9.40;99.90
57444;DHT22;43289;52.962;6.196;2023-02-28T11:54:17;9.10;99.90
57444;DHT22;43289;52.962;6.196;2023-02-28T11:56:57;8.90;99.90
57444;DHT22;43289;52.962;6.196;2023-02-28T12:07:49;9.70;99.90
57444;DHT22;43289;52.962;6.196;2023-02-28T12:13:25;9.00;99.90
57444;DHT22;43289;52.962;6.196;2023-02-28T12:18:53;8.80;99.90
57444;DHT22;43289;52.962;6.196;2023-02-28T12:21:40;8.50;99.90
57444;DHT22;43289;52.962;6.196;2023-02-28T12:29:12;8.60;99.90
57444;DHT22;43289;52.962;6.196;2023-02-28T12:31:46;8.70;99.90
57444;DHT22;43289;52.962;6.196;2023-02-28T12:34:19;8.70;99.90
57444;DHT22;43289;52.962;6.196;2023-02-28T12:36:47;8.70;99.90
57444;DHT22;43289;52.962;6.196;2023-02-28T12:39:19;8.70;99.90
57444;DHT22;43289;52.962;6.196;2023-02-28T12:41:59;8.90;99.90
57444;DHT22;43289;52.962;6.196;2023-02-28T12:44:35;8.90;99.90
57444;DHT22;43289;52.962;6.196;2023-02-28T12:47:08;8.80;99.90
57444;DHT22;43289;52.962;6.196;2023-02-28T12:49:39;8.60;99.90
57444;DHT22;43289;52.962;6.196;2023-02-28T12:52:07;8.50;99.90
57444;DHT22;43289;52.962;6.196;2023-02-28T12:57:18;8.50;99.90
57444;DHT22;43289;52.962;6.196;2023-02-28T12:59:53;8.10;99.90
57444;DHT22;43289;52.962;6.196;2023-02-28T13:10:45;7.40;99.90
57444;DHT22;43289;52.962;6.196;2023-02-28T13:13:16;7.30;99.90
57444;DHT22;43289;52.962;6.196;2023-02-28T13:15:57;7.10;99.90
57444;DHT22;43289;52.962;6.196;2023-02-28T13:18:45;7.20;99.90
57444;DHT22;43289;52.962;6.196;2023-02-28T13:21:29;7.20;99.90
57444;DHT22;43289;52.962;6.196;2023-02-28T13:29:27;7.60;99.90
57444;DHT22;43289;52.962;6.196;2023-02-28T13:32:27;7.70;99.90
57444;DHT22;43289;52.962;6.196;2023-02-28T13:39:56;8.00;99.90
57444;DHT22;43289;52.962;6.196;2023-02-28T13:47:49;8.40;99.90
57444;DHT22;43289;52.962;6.196;2023-02-28T13:50:36;8.50;99.90
57444;DHT22;43289;52.962;6.196;2023-02-28T13:56:20;8.50;99.90
57444;DHT22;43289;52.962;6.196;2023-02-28T13:59:08;8.60;99.90
57444;DHT22;43289;52.962;6.196;2023-02-28T14:01:52;8.60;99.90
57444;DHT22;43289;52.962;6.196;2023-02-28T14:04:50;8.50;99.90
57444;DHT22;43289;52.962;6.196;2023-02-28T14:07:23;8.40;99.90
57444;DHT22;43289;52.962;6.196;2023-02-28T14:09:56;8.40;99.90
57444;DHT22;43289;52.962;6.196;2023-02-28T14:12:52;8.20;99.90
57444;DHT22;43289;52.962;6.196;2023-02-28T14:18:17;7.80;99.90
57444;DHT22;43289;52.962;6.196;2023-02-28T14:20:44;7.70;99.90
57444;DHT22;43289;52.962;6.196;2023-02-28T14:23:43;7.60;99.90
57444;DHT22;43289;52.962;6.196;2023-02-28T14:26:44;7.50;99.90
57444;DHT22;43289;52.962;6.196;2023-02-28T14:29:36;7.40;99.90
57444;DHT22;43289;52.962;6.196;2023-02-28T14:32:28;7.50;99.90
57444;DHT22;43289;52.962;6.196;2023-02-28T14:38:05;7.50;99.90
57444;DHT22;43289;52.962;6.196;2023-02-28T14:40:33;7.40;99.90
57444;DHT22;43289;52.962;6.196;2023-02-28T14:43:03;7.50;99.90
57444;DHT22;43289;52.962;6.196;2023-02-28T14:45:34;7.50;99.90
57444;DHT22;43289;52.962;6.196;2023-02-28T14:48:02;7.50;99.90
57444;DHT22;43289;52.962;6.196;2023-02-28T14:50:37;7.50;99.90
57444;DHT22;43289;52.962;6.196;2023-02-28T14:53:03;7.50;99.90
57444;DHT22;43289;52.962;6.196;2023-02-28T14:55:31;7.50;99.90
57444;DHT22;43289;52.962;6.196;2023-02-28T14:58:02;7.50;99.90
57444;DHT22;43289;52.962;6.196;2023-02-28T15:00:34;7.50;99.90
57444;DHT22;43289;52.962;6.196;2023-02-28T15:03:19;7.50;99.90
57444;DHT22;43289;52.962;6.196;2023-02-28T15:05:52;7.50;99.90
57444;DHT22;43289;52.962;6.196;2023-02-28T15:08:18;7.50;99.90
57444;DHT22;43289;52.962;6.196;2023-02-28T15:11:36;7.60;99.90
57444;DHT22;43289;52.962;6.196;2023-02-28T15:13:38;7.50;99.90
57444;DHT22;43289;52.962;6.196;2023-02-28T15:16:12;7.50;99.90
57444;DHT22;43289;52.962;6.196;2023-02-28T15:18:58;7.40;99.90
57444;DHT22;43289;52.962;6.196;2023-02-28T15:21:37;7.30;99.90
57444;DHT22;43289;52.962;6.196;2023-02-28T15:24:17;7.30;99.90
57444;DHT22;43289;52.962;6.196;2023-02-28T15:26:57;7.20;99.90
57444;DHT22;43289;52.962;6.196;2023-02-28T15:29:25;7.10;99.90
57444;DHT22;43289;52.962;6.196;2023-02-28T15:32:04;7.00;99.90
57444;DHT22;43289;52.962;6.196;2023-02-28T15:34:43;6.90;99.90
57444;DHT22;43289;52.962;6.196;2023-02-28T15:40:14;6.80;99.90
57444;DHT22;43289;52.962;6.196;2023-02-28T15:42:40;6.80;99.90
57444;DHT22;43289;52.962;6.196;2023-02-28T15:45:27;6.80;99.90
57444;DHT22;43289;52.962;6.196;2023-02-28T15:47:53;6.90;99.90
57444;DHT22;43289;52.962;6.196;2023-02-28T15:50:19;6.90;99.90
57444;DHT22;43289;52.962;6.196;2023-02-28T15:52:45;6.80;99.90
57444;DHT22;43289;52.962;6.196;2023-02-28T15:55:23;6.80;99.90
57444;DHT22;43289;52.962;6.196;2023-02-28T15:57:53;6.80;99.90
57444;DHT22;43289;52.962;6.196;2023-02-28T16:00:25;6.70;99.90
57444;DHT22;43289;52.962;6.196;2023-02-28T16:02:51;6.70;99.90
57444;DHT22;43289;52.962;6.196;2023-02-28T16:05:22;6.70;99.90
57444;DHT22;43289;52.962;6.196;2023-02-28T16:08:13;6.60;99.90
57444;DHT22;43289;52.962;6.196;2023-02-28T16:10:39;6.50;99.90
57444;DHT22;43289;52.962;6.196;2023-02-28T16:13:05;6.50;99.90
57444;DHT22;43289;52.962;6.196;2023-02-28T16:15:36;6.40;99.90
57444;DHT22;43289;52.962;6.196;2023-02-28T16:18:12;6.40;99.90
57444;DHT22;43289;52.962;6.196;2023-02-28T16:20:38;6.40;99.90
57444;DHT22;43289;52.962;6.196;2023-02-28T16:23:03;6.30;99.90
57444;DHT22;43289;52.962;6.196;2023-02-28T16:25:35;6.20;99.90
57444;DHT22;43289;52.962;6.196;2023-02-28T16:28:01;6.10;99.90
57444;DHT22;43289;52.962;6.196;2023-02-28T16:30:28;6.10;99.90
57444;DHT22;43289;52.962;6.196;2023-02-28T16:32:57;6.00;99.90
57444;DHT22;43289;52.962;6.196;2023-02-28T16:35:23;5.90;99.90
57444;DHT22;43289;52.962;6.196;2023-02-28T16:37:51;5.80;99.90
57444;DHT22;43289;52.962;6.196;2023-02-28T16:40:23;5.80;99.90
57444;DHT22;43289;52.962;6.196;2023-02-28T16:42:50;5.80;99.90
57444;DHT22;43289;52.962;6.196;2023-02-28T16:45:23;5.80;99.90
57444;DHT22;43289;52.962;6.196;2023-02-28T16:47:49;5.80;99.90
57444;DHT22;43289;52.962;6.196;2023-02-28T16:50:37;5.80;99.90
57444;DHT22;43289;52.962;6.196;2023-02-28T16:53:02;5.70;99.90
57444;DHT22;43289;52.962;6.196;2023-02-28T16:55:27;5.70;99.90
57444;DHT22;43289;52.962;6.196;2023-02-28T16:57:55;5.60;99.90
57444;DHT22;43289;52.962;6.196;2023-02-28T17:00:22;5.60;99.90
57444;DHT22;43289;52.962;6.196;2023-02-28T17:23:33;5.40;99.90
57444;DHT22;43289;52.962;6.196;2023-02-28T17:25:59;4.40;99.90
57444;DHT22;43289;52.962;6.196;2023-02-28T17:28:25;4.30;99.90
57444;DHT22;43289;52.962;6.196;2023-02-28T17:30:50;4.20;99.90
57444;DHT22;43289;52.962;6.196;2023-02-28T17:33:16;4.10;99.90
57444;DHT22;43289;52.962;6.196;2023-02-28T20:29:24;4.00;99.90
57444;DHT22;43289;52.962;6.196;2023-02-28T20:31:50;0.60;99.90
57444;DHT22;43289;52.962;6.196;2023-02-28T20:34:15;0.50;99.90
57444;DHT22;43289;52.962;6.196;2023-02-28T20:36:42;0.60;99.90
57444;DHT22;43289;52.962;6.196;2023-02-28T20:39:08;0.60;99.90
57444;DHT22;43289;52.962;6.196;2023-02-28T20:41:34;0.60;99.90
57444;DHT22;43289;52.962;6.196;2023-02-28T20:44:00;0.60;99.90
57444;DHT22;43289;52.962;6.196;2023-02-28T20:46:29;0.60;99.90
57444;DHT22;43289;52.962;6.196;2023-02-28T20:48:56;0.70;99.90
57444;DHT22;43289;52.962;6.196;2023-02-28T20:51:22;0.60;99.90
57444;DHT22;43289;52.962;6.196;2023-02-28T20:53:48;0.60;99.90
57444;DHT22;43289;52.962;6.196;2023-02-28T20:56:16;0.60;99.90
57444;DHT22;43289;52.962;6.196;2023-02-28T20:58:45;0.70;99.90
57444;DHT22;43289;52.962;6.196;2023-02-28T21:01:17;0.60;99.90
57444;DHT22;43289;52.962;6.196;2023-02-28T21:03:48;0.60;99.90
57444;DHT22;43289;52.962;6.196;2023-02-28T21:06:15;0.50;99.90
57444;DHT22;43289;52.962;6.196;2023-02-28T21:08:41;0.50;99.90
57444;DHT22;43289;52.962;6.196;2023-02-28T21:11:16;0.50;99.90
57444;DHT22;43289;52.962;6.196;2023-02-28T21:13:42;0.40;99.90